Latest Weather Observations for Essendon Airport

IDV60801

Issued at 2:35 pm EST Thursday 24 April 2014 (issued every 30 minutes, with the page automatically refreshed every 10 minutes)

About weather observations | Map of weather stations | Latest weather observations for VIC | Other Formats
Station Details ID: 086038 Name: ESSENDON AIRPORT Lat: -37.73 Lon: 144.91 Height: 78.4 m
Data from the previous 72 hours. | See also: Recent months at Essendon Airport
Date/Time
EST
Temp
°C
App
Temp
°C
Dew
Point
Rel
Hum
%
Delta-T
°C
Wind Press
QNH
hPa
Press
MSL
hPa
Rain
since 9 am
mm
Dir
 
Spd
km/h
Gust
km/h
Spd
kts
Gust
kts
24/02:30pm 16.4 11.3 4.1 44 5.7 S 20 30 11 16 1017.3 - 0.0
24/02:00pm 15.9 10.4 4.0 45 5.5 S 22 30 12 16 1017.2 - 0.0
24/01:30pm 16.2 10.4 4.6 46 5.5 S 24 35 13 19 1017.2 - 0.0
24/01:00pm 16.1 9.3 3.2 42 5.9 SSW 28 37 15 20 1017.2 - 0.0
24/12:30pm 16.1 8.8 4.5 46 5.5 WSW 32 43 17 23 1017.2 - 0.0
24/12:00pm 16.4 11.9 6.8 53 4.7 SW 20 30 11 16 1017.4 1017.3 0.0
24/11:30am 16.5 10.5 7.2 54 4.6 SW 28 37 15 20 1017.2 - 0.0
24/11:00am 16.0 10.1 7.5 57 4.3 WSW 28 33 15 18 1016.9 - 0.0
24/10:30am 16.0 10.6 9.4 65 3.4 SW 28 41 15 22 1016.6 - 0.0
24/10:00am 14.7 9.6 10.7 77 2.1 W 28 39 15 21 1016.3 - 0.0
24/09:30am 14.0 10.6 11.2 83 1.5 W 20 33 11 18 1015.9 - 0.0
24/09:00am 13.2 9.4 11.3 88 1.0 W 22 30 12 16 1015.2 1015.2 0.8
24/08:30am 12.8 8.9 10.7 87 1.1 W 22 32 12 17 1014.6 - 0.8
24/08:00am 14.6 10.8 7.6 63 3.5 NW 17 24 9 13 1013.2 - 0.0
24/07:30am 14.3 9.9 6.6 60 3.7 NNW 19 26 10 14 1012.4 - 0.0
24/07:00am 13.5 8.9 5.4 58 3.8 NNW 19 30 10 16 1012.1 - 0.0
24/06:30am 14.1 8.8 5.2 55 4.2 NNW 22 32 12 17 1011.8 - 0.0
24/06:00am 14.3 8.2 4.6 52 4.5 NNW 26 35 14 19 1011.5 1011.4 0.0
24/05:30am 14.6 9.5 4.3 50 4.8 NNW 20 32 11 17 1011.0 - 0.0
24/05:00am 13.3 8.3 4.5 55 4.1 N 20 28 11 15 1010.6 - 0.0
24/04:30am 13.5 8.1 4.4 54 4.2 N 22 32 12 17 1010.6 - 0.0
24/04:00am 13.5 9.1 4.6 55 4.1 NNW 17 24 9 13 1010.7 - 0.0
24/03:30am 13.0 9.8 5.2 59 3.6 N 11 17 6 9 1010.7 - 0.0
24/03:00am 13.5 9.2 5.4 58 3.8 NNE 17 24 9 13 1010.7 1010.6 0.0
24/02:30am 13.4 9.6 5.8 60 3.6 N 15 19 8 10 1011.1 - 0.0
24/02:00am 13.4 10.0 5.8 60 3.6 N 13 17 7 9 1011.4 - 0.0
24/01:30am 13.3 9.6 6.2 62 3.4 N 15 17 8 9 1011.7 - 0.0
24/01:00am 13.4 10.0 6.0 61 3.5 N 13 17 7 9 1011.9 - 0.0
24/12:30am 13.5 9.4 6.1 61 3.5 N 17 20 9 11 1011.8 - 0.0
24/12:00am 13.5 9.7 5.9 60 3.6 N 15 19 8 10 1012.2 1012.1 0.0
 
Date/Time
EST
Temp
°C
App
Temp
°C
Dew
Point
Rel
Hum
%
Delta-T
°C
Wind Press
QNH
hPa
Press
MSL
hPa
Rain
since 9 am
mm
Dir
 
Spd
km/h
Gust
km/h
Spd
kts
Gust
kts
23/11:30pm 13.2 9.8 6.1 62 3.4 N 13 17 7 9 1012.5 - 0.0
23/11:00pm 12.6 9.6 6.2 65 3.0 N 11 15 6 8 1012.8 - 0.0
23/10:30pm 13.0 10.4 6.1 63 3.3 N 9 13 5 7 1013.1 - 0.0
23/10:00pm 13.7 11.1 6.1 60 3.6 NNW 9 13 5 7 1013.3 - 0.0
23/09:30pm 13.9 10.9 6.0 59 3.8 NW 11 13 6 7 1013.3 - 0.0
23/09:00pm 14.5 11.0 5.6 55 4.2 N 13 17 7 9 1013.2 1013.1 0.0
23/08:30pm 14.2 11.3 6.6 60 3.7 N 11 13 6 7 1013.2 - 0.0
23/08:00pm 14.3 12.0 7.4 63 3.4 N 9 11 5 6 1013.3 - 0.0
23/07:30pm 14.6 12.3 9.0 69 2.9 N 11 15 6 8 1013.5 - 0.0
23/07:00pm 14.9 13.4 9.1 68 3.0 N 7 9 4 5 1013.1 - 0.0
23/06:30pm 15.1 13.5 8.8 66 3.2 SSW 7 9 4 5 1013.0 - 0.0
23/06:00pm 16.3 16.0 8.5 60 4.0 CALM 0 0 0 0 1013.0 1012.9 0.0
23/05:30pm 16.2 14.3 9.2 63 3.6 SSW 9 11 5 6 1013.1 - 0.0
23/05:00pm 17.8 16.1 9.7 59 4.3 WSW 9 13 5 7 1013.1 - 0.0
23/04:30pm 17.8 15.8 8.6 55 4.8 W 9 15 5 8 1013.3 - 0.0
23/04:00pm 18.1 16.7 8.9 55 4.8 W 6 7 3 4 1013.2 - 0.0
23/03:30pm 18.2 16.6 8.7 54 4.9 W 7 11 4 6 1013.3 - 0.0
23/03:00pm 18.6 17.0 8.8 53 5.1 W 7 13 4 7 1013.3 1013.2 0.0
23/02:30pm 18.2 16.3 9.0 55 4.8 WNW 9 13 5 7 1013.5 - 0.0
23/02:00pm 17.7 15.3 8.6 55 4.7 W 11 17 6 9 1013.9 - 0.0
23/01:30pm 17.8 16.3 9.2 57 4.5 NW 7 13 4 7 1014.3 - 0.0
23/01:00pm 17.6 15.9 9.8 60 4.1 NW 9 15 5 8 1014.8 - 0.0
23/12:30pm 18.0 15.8 10.9 63 3.8 W 13 20 7 11 1015.4 - 0.0
23/12:00pm 17.1 15.7 9.5 61 4.0 N 7 11 4 6 1015.7 1015.7 0.0
23/11:30am 16.2 15.0 9.6 65 3.4 W 6 9 3 5 1016.2 - 0.0
23/11:00am 16.0 14.8 9.7 66 3.3 WNW 6 11 3 6 1016.3 - 0.0
23/10:30am 15.3 13.3 10.1 71 2.7 WSW 11 15 6 8 1016.9 - 0.0
23/10:00am 14.6 12.7 10.4 76 2.2 WSW 11 15 6 8 1017.0 - 0.0
23/09:30am 13.9 11.5 10.1 78 2.0 SW 13 15 7 8 1017.2 - 0.0
23/09:00am 13.1 10.8 10.5 84 1.4 W 13 15 7 8 1017.3 1017.2 4.2
23/08:30am 12.3 10.8 10.5 89 0.9 W 9 11 5 6 1016.8 - 4.2
23/08:00am 11.2 9.6 10.3 94 0.5 WNW 9 11 5 6 1016.7 - 4.2
23/07:30am 9.8 7.5 9.0 95 0.4 WNW 11 11 6 6 1016.6 - 4.2
23/07:00am 9.7 7.8 8.9 95 0.4 NW 9 11 5 6 1016.3 - 4.2
23/06:30am 9.8 7.9 9.0 95 0.4 NW 9 11 5 6 1016.3 - 4.2
23/06:00am 10.2 8.4 9.4 95 0.4 WNW 9 11 5 6 1016.5 1016.4 4.2
23/05:30am 10.4 9.0 9.6 95 0.4 WNW 7 11 4 6 1016.3 - 4.2
23/05:00am 10.8 8.7 9.9 94 0.5 W 11 13 6 7 1016.3 - 4.2
23/04:30am 11.8 10.7 10.7 93 0.6 WNW 7 7 4 4 1016.1 - 4.2
23/04:00am 11.7 10.2 10.4 92 0.7 WNW 9 9 5 5 1016.1 - 4.2
23/03:30am 12.2 10.8 10.9 92 0.7 W 9 11 5 6 1016.2 - 4.2
23/03:00am 12.5 11.6 11.2 92 0.7 WSW 7 7 4 4 1016.4 1016.3 4.2
23/02:30am 12.7 11.4 11.3 91 0.7 WSW 9 11 5 6 1016.5 - 4.2
23/02:00am 12.7 11.8 11.3 91 0.7 SW 7 9 4 5 1016.7 - 4.2
23/01:30am 13.1 12.3 11.8 92 0.7 WSW 7 9 4 5 1017.1 - 4.2
23/01:00am 13.3 12.6 12.0 92 0.7 W 7 9 4 5 1017.1 - 4.2
23/12:30am 13.3 13.9 11.9 91 0.8 CALM 0 0 0 0 1017.2 - 4.2
23/12:00am 13.5 14.0 11.7 89 1.0 CALM 0 0 0 0 1017.4 1017.3 4.2
 
Date/Time
EST
Temp
°C
App
Temp
°C
Dew
Point
Rel
Hum
%
Delta-T
°C
Wind Press
QNH
hPa
Press
MSL
hPa
Rain
since 9 am
mm
Dir
 
Spd
km/h
Gust
km/h
Spd
kts
Gust
kts
22/11:30pm 13.6 14.2 11.8 89 1.0 CALM 0 0 0 0 1017.5 - 4.2
22/11:00pm 13.7 14.4 12.1 90 0.9 CALM 0 0 0 0 1017.8 - 4.2
22/10:30pm 13.9 13.7 11.9 88 1.1 S 4 6 2 3 1018.0 - 4.2
22/10:00pm 13.8 14.4 12.0 89 1.0 CALM 0 0 0 0 1018.0 - 4.2
22/09:30pm 13.9 14.1 11.8 87 1.1 S 2 6 1 3 1017.9 - 4.2
22/09:00pm 14.0 12.9 12.0 88 1.1 SSW 9 13 5 7 1017.5 1017.4 4.2
22/08:30pm 14.0 12.1 11.7 86 1.2 S 13 17 7 9 1017.3 - 4.2
22/08:00pm 14.1 11.5 12.0 87 1.1 SSW 17 20 9 11 1017.2 - 4.0
22/07:30pm 14.6 14.1 13.8 95 0.4 SSW 9 11 5 6 1017.0 - 4.0
22/07:04pm 14.7 14.2 13.9 95 0.5 S 9 11 5 6 1016.7 - 4.0
22/07:00pm 14.7 14.2 13.9 95 0.5 S 9 11 5 6 1016.7 - 4.0
22/06:30pm 14.6 14.1 13.8 95 0.4 SSE 9 11 5 6 1016.3 - 4.0
22/06:06pm 14.8 14.0 14.0 95 0.5 S 11 17 6 9 1016.1 - 4.0
22/06:00pm 14.7 14.6 13.9 95 0.4 SSE 7 11 4 6 1016.0 1015.9 4.0
22/05:30pm 14.7 14.5 13.7 94 0.6 NNE 7 7 4 4 1015.5 - 3.8
22/05:00pm 15.0 16.2 13.9 93 0.6 CALM 0 0 0 0 1015.4 - 3.8
22/04:40pm 14.9 15.3 13.6 92 0.7 SSW 4 7 2 4 1015.3 - 3.6
22/04:30pm 15.0 15.0 13.5 91 0.8 SSW 6 7 3 4 1015.2 - 3.6
22/04:21pm 15.1 14.1 13.5 90 0.9 SSW 11 17 6 9 1015.2 - 3.4
22/04:00pm 15.9 14.8 13.2 84 1.5 SSW 11 13 6 7 1015.0 - 2.4
22/03:30pm 16.5 17.2 13.4 82 1.7 N 2 6 1 3 1014.7 - 2.4
22/03:00pm 16.4 16.9 12.9 80 1.9 N 2 7 1 4 1014.5 1014.4 2.4
22/02:30pm 16.1 15.0 13.0 82 1.7 N 11 13 6 7 1014.2 - 2.4
22/02:00pm 16.6 15.6 12.4 76 2.3 N 9 11 5 6 1014.1 - 2.2
22/01:30pm 16.0 14.3 12.4 79 2.0 N 13 20 7 11 1014.0 - 2.0
22/01:00pm 16.6 14.9 11.3 71 2.9 N 11 17 6 9 1014.3 - 2.0
22/12:30pm 15.9 12.6 10.9 72 2.7 N 19 24 10 13 1014.6 - 2.0
22/12:00pm 15.6 11.2 10.4 71 2.7 N 24 35 13 19 1014.8 1014.8 2.0
22/11:30am 15.0 10.3 10.6 75 2.3 N 26 35 14 19 1015.0 - 2.0
22/11:00am 14.1 10.1 10.5 79 1.9 N 22 33 12 18 1015.2 - 2.0
22/10:30am 13.7 10.2 10.9 83 1.5 N 20 28 11 15 1015.0 - 2.0
22/10:00am 13.0 8.3 10.5 85 1.3 N 26 39 14 21 1015.5 - 1.4
22/09:30am 13.5 9.3 9.9 79 1.9 N 22 28 12 15 1015.4 - 0.2
22/09:00am 13.1 9.4 10.1 82 1.6 N 20 32 11 17 1015.7 1015.7 2.8
22/08:30am 13.3 9.1 9.7 79 1.9 N 22 30 12 16 1015.5 - 1.8
22/08:00am 13.7 10.7 9.4 75 2.2 N 15 28 8 15 1016.4 - 0.8
22/07:30am 14.6 11.0 8.5 67 3.1 N 17 30 9 16 1015.6 - 0.0
22/07:01am 15.4 9.5 7.4 59 4.0 N 28 46 15 25 1014.5 - 0.0
22/07:00am 15.4 9.1 7.4 59 4.0 N 30 46 16 25 1014.5 - 0.0
22/06:33am 15.6 9.2 7.1 57 4.2 N 30 48 16 26 1014.4 - 0.0
22/06:30am 15.6 9.6 7.1 57 4.2 N 28 43 15 23 1014.6 - 0.0
22/06:09am 15.6 9.6 7.1 57 4.2 N 28 46 15 25 1014.6 - 0.0
22/06:00am 15.7 9.3 7.0 56 4.3 NNW 30 43 16 23 1015.1 1015.1 0.0
22/05:30am 15.6 8.8 6.9 56 4.3 N 32 52 17 28 1014.5 - 0.0
22/05:10am 15.8 8.8 6.8 55 4.4 N 33 52 18 28 1014.1 - 0.0
22/05:00am 16.0 9.1 6.4 53 4.7 N 32 46 17 25 1014.1 - 0.0
22/04:30am 16.0 8.5 6.4 53 4.7 N 35 48 19 26 1012.6 - 0.0
22/04:06am 16.2 8.3 6.3 52 4.8 N 37 56 20 30 1012.3 - 0.0
22/04:00am 16.3 8.1 6.4 52 4.9 N 39 56 21 30 1012.2 - 0.0
22/03:43am 16.5 7.5 6.3 51 5.0 N 43 61 23 33 1012.1 - 0.0
22/03:30am 16.6 7.5 6.1 50 5.1 N 43 57 23 31 1011.9 - 0.0
22/03:04am 16.5 7.5 6.3 51 5.0 N 43 61 23 33 1011.7 - 0.0
22/03:00am 16.4 7.4 6.2 51 5.0 N 43 57 23 31 1011.8 1011.7 0.0
22/02:30am 16.3 7.3 6.4 52 4.9 N 43 63 23 34 1012.2 - 0.0
22/02:07am 16.5 7.3 6.3 51 5.0 N 44 65 24 35 1012.2 - 0.0
22/02:00am 16.3 7.3 6.4 52 4.9 N 43 59 23 32 1012.3 - 0.0
22/01:30am 16.3 7.3 6.4 52 4.9 N 43 61 23 33 1012.4 - 0.0
22/01:08am 16.2 7.2 6.3 52 4.8 N 43 61 23 33 1012.4 - 0.0
22/01:00am 16.3 7.1 6.4 52 4.9 N 44 61 24 33 1012.4 - 0.0
22/12:30am 16.4 7.7 6.2 51 5.0 N 41 63 22 34 1012.7 - 0.0
22/12:00am 16.8 8.2 6.3 50 5.2 N 41 59 22 32 1013.1 1013.0 0.0
 
Date/Time
EST
Temp
°C
App
Temp
°C
Dew
Point
Rel
Hum
%
Delta-T
°C
Wind Press
QNH
hPa
Press
MSL
hPa
Rain
since 9 am
mm
Dir
 
Spd
km/h
Gust
km/h
Spd
kts
Gust
kts
21/11:37pm 16.9 8.6 6.1 49 5.3 N 39 57 21 31 1013.3 - 0.0
21/11:30pm 16.9 8.6 6.1 49 5.3 N 39 56 21 30 1013.4 - 0.0
21/11:00pm 16.9 8.6 6.1 49 5.3 N 39 52 21 28 1013.6 - 0.0
21/10:35pm 16.7 8.0 6.2 50 5.1 N 41 59 22 32 1013.8 - 0.0
21/10:30pm 16.9 7.9 6.4 50 5.2 N 43 59 23 32 1013.7 - 0.0
21/10:00pm 16.7 8.8 6.2 50 5.1 N 37 56 20 30 1014.1 - 0.0
21/09:35pm 16.6 8.4 6.4 51 5.0 N 39 57 21 31 1014.2 - 0.0
21/09:30pm 16.6 8.0 6.4 51 5.0 N 41 57 22 31 1014.1 - 0.0
21/09:00pm 16.7 7.5 6.5 51 5.0 N 44 67 24 36 1013.9 1013.8 0.0
21/08:30pm 16.7 7.8 6.8 52 4.9 N 43 65 23 35 1014.2 - 0.0
21/08:00pm 16.9 8.0 6.7 51 5.1 N 43 65 23 35 1013.9 - 0.0
21/07:30pm 16.7 7.9 7.1 53 4.8 N 43 61 23 33 1014.1 - 0.0
21/07:15pm 16.9 8.1 7.3 53 4.8 N 43 61 23 33 1014.2 - 0.0
21/07:00pm 16.8 7.8 7.2 53 4.8 N 44 59 24 32 1014.3 - 0.0
21/06:30pm 16.7 8.6 7.1 53 4.8 N 39 59 21 32 1014.1 - 0.0
21/06:00pm 16.8 7.9 6.9 52 4.9 N 43 65 23 35 1013.8 1013.7 0.0
21/05:30pm 17.0 9.0 7.4 53 4.8 N 39 57 21 31 1013.5 - 0.0
21/05:10pm 17.0 10.1 7.4 53 4.8 N 33 52 18 28 1013.7 - 0.0
21/05:00pm 17.1 9.9 7.5 53 4.8 N 35 48 19 26 1013.7 - 0.0
21/04:30pm 17.1 9.1 7.5 53 4.8 N 39 57 21 31 1014.0 - 0.0
21/04:01pm 17.7 10.1 7.7 52 5.1 N 37 56 20 30 1014.0 - 0.0
21/04:00pm 17.7 9.8 7.7 52 5.1 N 39 56 21 30 1014.0 - 0.0
21/03:30pm 18.0 11.4 7.7 51 5.2 N 32 50 17 27 1014.8 - 0.0
21/03:26pm 17.7 11.0 7.4 51 5.2 N 32 50 17 27 1014.9 - 0.0
21/03:00pm 18.3 11.1 7.7 50 5.4 N 35 50 19 27 1015.4 1015.4 0.0

Other Formats:

Comma delimited format used in spreadsheet applications
http://www.bom.gov.au/fwo/IDV60801/IDV60801.95866.axf

JavaScript Object Notation format (JSON) in row-major order
http://www.bom.gov.au/fwo/IDV60801/IDV60801.95866.json